Time;durP1;ratioP1;P1;durP2;ratioP2;P2;SDS_P1;SDS_P2;PMS_P1;PMS_P2;Temp;Humidity;BMP_temperature;BMP_pressure;BME280_temperature;BME280_humidity;BME280_pressure;Samples;Min_cycle;Max_cycle;Signal;HPM_P1;HPM_P2
2023/05/17 00:02:24;;;;;;;20.13;9.30;;;;;;;15.00;68.45;93279.44;4900778;28;20024;-74
2023/05/17 00:04:49;;;;;;;14.45;9.00;;;;;;;14.76;68.67;93258.31;4897939;28;20036;-74
2023/05/17 00:07:14;;;;;;;18.65;8.60;;;;;;;14.86;68.46;93287.22;4905462;28;20062;-74
2023/05/17 00:09:40;;;;;;;14.73;8.35;;;;;;;14.79;68.66;93277.13;4910223;29;21013;-73
2023/05/17 00:12:06;;;;;;;17.73;8.90;;;;;;;14.75;68.38;93272.81;4909206;29;20039;-73
2023/05/17 00:14:31;;;;;;;20.35;8.00;;;;;;;14.88;68.33;93292.97;4896093;29;20032;-72
2023/05/17 00:16:57;;;;;;;18.83;9.25;;;;;;;14.84;68.29;93286.78;4896986;29;20482;-74
2023/05/17 00:19:22;;;;;;;20.35;9.60;;;;;;;14.78;68.76;93293.53;4901619;29;20075;-74
2023/05/17 00:21:48;;;;;;;16.90;8.65;;;;;;;14.77;68.13;93290.06;4911328;28;20042;-74
2023/05/17 00:24:13;;;;;;;23.30;10.35;;;;;;;14.49;68.51;93258.13;4907025;29;20074;-74
2023/05/17 00:26:38;;;;;;;11.48;9.15;;;;;;;14.67;68.22;93263.09;4899714;29;20039;-74
2023/05/17 00:29:04;;;;;;;19.85;10.48;;;;;;;14.56;68.67;93277.03;4895939;28;20026;-73
2023/05/17 00:31:29;;;;;;;17.05;9.00;;;;;;;14.59;68.60;93283.59;4891790;28;20632;-74
2023/05/17 00:33:55;;;;;;;11.95;8.57;;;;;;;14.47;68.82;93268.38;4901789;29;20074;-74
2023/05/17 00:36:20;;;;;;;12.38;8.10;;;;;;;14.59;68.33;93276.34;4904205;28;20048;-73
2023/05/17 00:38:46;;;;;;;14.10;8.70;;;;;;;14.54;68.15;93273.94;4916911;28;20139;-73
2023/05/17 00:41:11;;;;;;;13.57;8.85;;;;;;;14.50;68.54;93289.09;4918281;28;20051;-74
2023/05/17 00:43:37;;;;;;;21.70;8.70;;;;;;;14.46;68.48;93284.81;4911761;28;20098;-74
2023/05/17 00:46:03;;;;;;;16.67;9.07;;;;;;;14.49;68.26;93290.22;4923901;28;20094;-74
2023/05/17 00:48:29;;;;;;;16.70;9.35;;;;;;;14.46;68.30;93284.81;4919319;28;20503;-74
2023/05/17 00:50:55;;;;;;;16.30;9.38;;;;;;;14.44;68.03;93287.81;4915486;28;20047;-73
2023/05/17 00:53:21;;;;;;;15.07;8.35;;;;;;;14.45;67.84;93292.06;4927912;28;20034;-74
2023/05/17 00:55:48;;;;;;;17.10;9.20;;;;;;;14.39;67.64;93295.34;4918023;28;20043;-74
2023/05/17 00:58:14;;;;;;;13.55;8.45;;;;;;;14.41;67.89;93296.56;4914290;28;21118;-74
2023/05/17 01:00:40;;;;;;;17.77;8.95;;;;;;;14.31;68.37;93286.41;4917430;28;20135;-74
2023/05/17 01:03:05;;;;;;;11.98;8.43;;;;;;;14.37;68.34;93305.63;4922849;28;20056;-73
2023/05/17 01:05:31;;;;;;;18.00;9.07;;;;;;;14.33;68.16;93304.75;4921257;28;20148;-74
2023/05/17 01:07:57;;;;;;;15.60;8.80;;;;;;;14.32;67.97;93304.00;4924887;28;20042;-73
2023/05/17 01:10:40;;;;;;;15.63;8.63;;;;;;;14.28;68.26;93291.66;4924313;28;20054;-74
2023/05/17 01:13:09;;;;;;;17.95;9.15;;;;;;;14.21;68.52;93283.47;4925017;28;20127;-72
2023/05/17 01:15:44;;;;;;;17.15;9.80;;;;;;;14.32;68.15;93287.19;4918764;28;20505;-74
2023/05/17 01:18:40;;;;;;;16.65;9.38;;;;;;;14.30;68.12;93284.84;4919340;28;20058;-74
2023/05/17 01:21:34;;;;;;;15.38;9.65;;;;;;;14.16;68.04;93273.81;4919059;28;20568;-73
2023/05/17 01:24:15;;;;;;;15.73;9.55;;;;;;;14.27;68.35;93290.91;4936370;28;20742;-73
2023/05/17 01:26:46;;;;;;;15.98;9.15;;;;;;;14.01;68.37;93278.06;4939073;28;20027;-74
2023/05/17 01:29:14;;;;;;;17.00;9.30;;;;;;;14.13;68.15;93285.22;4925253;28;20027;-73
2023/05/17 01:31:40;;;;;;;17.48;8.68;;;;;;;14.18;68.17;93292.97;4921124;28;20541;-74
2023/05/17 01:34:07;;;;;;;13.02;8.00;;;;;;;14.21;68.01;93286.94;4920277;28;20452;-73
2023/05/17 01:36:34;;;;;;;16.38;9.02;;;;;;;14.10;68.24;93286.69;4918874;28;20529;-75
2023/05/17 01:39:00;;;;;;;15.68;9.35;;;;;;;14.04;68.20;93272.03;4924040;28;20105;-74
2023/05/17 01:41:35;;;;;;;17.83;9.63;;;;;;;14.12;68.12;93278.31;4915643;28;20043;-74
2023/05/17 01:44:19;;;;;;;19.00;9.13;;;;;;;14.20;67.45;93290.72;4916657;28;20051;-74
2023/05/17 01:46:46;;;;;;;12.13;7.35;;;;;;;14.11;67.25;93290.91;4921494;28;20038;-74
2023/05/17 01:49:19;;;;;;;24.10;8.30;;;;;;;14.15;66.82;93294.44;4924268;28;20042;-74
2023/05/17 01:51:49;;;;;;;13.07;6.97;;;;;;;14.02;66.59;93268.16;4919079;28;20399;-74
2023/05/17 01:54:22;;;;;;;16.58;7.28;;;;;;;14.11;66.76;93280.22;4914639;28;20434;-74
2023/05/17 01:56:56;;;;;;;15.30;7.68;;;;;;;13.84;67.06;93240.25;4914179;28;20055;-74
2023/05/17 01:59:24;;;;;;;14.20;6.33;;;;;;;13.92;67.02;93258.00;4923224;28;20027;-74
2023/05/17 02:01:54;;;;;;;15.80;7.95;;;;;;;13.97;66.62;93279.13;4919202;28;20820;-75
2023/05/17 02:04:19;;;;;;;17.30;6.75;;;;;;;13.92;66.76;93293.53;4941550;28;20150;-74
2023/05/17 02:06:45;;;;;;;7.88;5.53;;;;;;;13.69;66.47;93255.16;4917377;28;20042;-73
2023/05/17 02:09:10;;;;;;;15.15;6.13;;;;;;;13.66;67.08;93267.31;4917321;28;20158;-74
2023/05/17 02:11:36;;;;;;;12.63;6.00;;;;;;;13.78;67.61;93285.16;4927747;28;20019;-74
2023/05/17 02:14:01;;;;;;;17.60;6.97;;;;;;;13.81;66.96;93276.44;4915860;28;20667;-74
2023/05/17 02:16:27;;;;;;;13.07;5.18;;;;;;;13.72;66.98;93276.63;4922746;28;20389;-73
2023/05/17 02:18:52;;;;;;;12.70;4.57;;;;;;;13.71;67.07;93285.75;4924562;28;20040;-74
2023/05/17 02:21:17;;;;;;;11.23;6.07;;;;;;;13.58;66.90;93270.91;4923598;28;21197;-74
2023/05/17 02:23:43;;;;;;;13.02;5.93;;;;;;;13.70;67.06;93284.19;4928746;28;20041;-74
2023/05/17 02:26:08;;;;;;;17.27;5.32;;;;;;;13.59;66.15;93261.78;4924116;28;20052;-73
2023/05/17 02:28:34;;;;;;;13.60;5.63;;;;;;;13.56;66.55;93259.78;4928806;28;20036;-74
2023/05/17 02:30:59;;;;;;;9.88;5.80;;;;;;;13.65;66.61;93279.13;4925004;28;20031;-74
2023/05/17 02:33:24;;;;;;;15.70;5.70;;;;;;;13.48;66.43;93271.41;4914043;28;20043;-74
2023/05/17 02:35:50;;;;;;;12.65;5.55;;;;;;;13.54;66.67;93275.41;4925776;28;20038;-73
2023/05/17 02:38:16;;;;;;;10.55;5.20;;;;;;;13.54;66.79;93280.75;4935441;28;20079;-74
2023/05/17 02:40:41;;;;;;;10.80;6.20;;;;;;;13.52;66.96;93272.28;4923742;28;20043;-74
2023/05/17 02:43:06;;;;;;;14.35;6.25;;;;;;;13.35;67.18;93269.16;4922251;28;20210;-73
2023/05/17 02:45:32;;;;;;;27.63;6.15;;;;;;;13.36;66.67;93268.03;4922717;28;20067;-74
2023/05/17 02:47:57;;;;;;;11.07;6.10;;;;;;;13.38;67.31;93287.94;4925031;28;20580;-74
2023/05/17 02:50:23;;;;;;;13.43;6.20;;;;;;;13.34;67.54;93281.75;4924087;28;20034;-74
2023/05/17 02:52:48;;;;;;;14.75;6.75;;;;;;;13.33;67.06;93278.28;4920886;28;20158;-73
2023/05/17 02:55:14;;;;;;;13.35;6.05;;;;;;;13.37;67.15;93302.41;4919680;28;20532;-73
2023/05/17 02:57:39;;;;;;;10.75;6.55;;;;;;;13.28;67.64;93296.47;4921705;28;20038;-72
2023/05/17 03:00:05;;;;;;;11.63;5.35;;;;;;;13.25;67.35;93289.16;4923293;28;20518;-74
2023/05/17 03:02:31;;;;;;;12.10;6.05;;;;;;;13.26;67.67;93290.66;4923405;28;20402;-73
2023/05/17 03:04:56;;;;;;;19.23;5.63;;;;;;;13.23;67.57;93300.16;4913759;28;20078;-74
2023/05/17 03:07:22;;;;;;;17.63;6.40;;;;;;;13.18;67.62;93305.75;4916201;28;20475;-73
2023/05/17 03:09:47;;;;;;;12.10;6.68;;;;;;;13.27;67.32;93321.59;4944884;28;20086;-73
2023/05/17 03:12:12;;;;;;;14.70;6.22;;;;;;;13.25;67.33;93318.50;4941675;28;20438;-73
2023/05/17 03:14:38;;;;;;;10.77;5.78;;;;;;;13.21;66.91;93309.59;4932889;28;20226;-74
2023/05/17 03:17:04;;;;;;;13.30;6.22;;;;;;;13.19;67.30;93319.88;4915114;28;20024;-74
2023/05/17 03:19:29;;;;;;;14.05;5.80;;;;;;;12.91;67.70;93305.75;4917989;28;20031;-74
2023/05/17 03:21:54;;;;;;;14.20;6.50;;;;;;;13.01;67.42;93322.03;4930972;28;20475;-74
2023/05/17 03:24:20;;;;;;;9.90;5.80;;;;;;;13.01;67.47;93318.59;4914815;28;20035;-73
2023/05/17 03:26:45;;;;;;;9.85;5.80;;;;;;;13.05;67.52;93325.59;4933919;28;20038;-73
2023/05/17 03:29:11;;;;;;;11.93;5.82;;;;;;;13.00;67.70;93336.53;4917579;28;20078;-72
2023/05/17 03:31:36;;;;;;;18.25;6.50;;;;;;;12.95;67.39;93317.31;4919914;28;20072;-74
2023/05/17 03:34:03;;;;;;;11.23;5.63;;;;;;;12.93;67.45;93320.31;4916726;28;20036;-73
2023/05/17 03:36:28;;;;;;;14.68;6.88;;;;;;;13.02;67.34;93322.81;4919233;28;20126;-73
2023/05/17 03:38:53;;;;;;;11.05;6.18;;;;;;;12.92;67.79;93315.28;4916851;28;20615;-74
2023/05/17 03:41:19;;;;;;;16.98;6.60;;;;;;;13.02;68.45;93322.81;4912998;28;20039;-75
2023/05/17 03:43:44;;;;;;;20.80;7.50;;;;;;;12.99;68.29;93313.63;4923243;28;20063;-74
2023/05/17 03:46:10;;;;;;;14.88;7.45;;;;;;;13.09;68.58;93323.03;4920860;28;20774;-73
2023/05/17 03:48:36;;;;;;;15.20;7.20;;;;;;;13.05;68.41;93311.47;4931097;28;20039;-73
2023/05/17 03:51:01;;;;;;;20.38;7.13;;;;;;;13.11;68.07;93305.53;4933589;28;20121;-74
2023/05/17 03:53:27;;;;;;;15.13;7.10;;;;;;;13.07;68.59;93314.56;4914740;28;20546;-73
2023/05/17 03:55:52;;;;;;;12.98;6.82;;;;;;;13.12;69.08;93323.13;4917196;28;20059;-73
2023/05/17 03:58:18;;;;;;;14.82;8.05;;;;;;;13.09;68.53;93312.34;4918080;28;20039;-74
2023/05/17 04:00:43;;;;;;;16.45;7.50;;;;;;;13.15;68.59;93322.44;4917989;28;20548;-73
2023/05/17 04:03:08;;;;;;;14.13;6.43;;;;;;;13.17;68.60;93330.09;4914880;28;20158;-73
2023/05/17 04:05:34;;;;;;;12.18;6.50;;;;;;;13.04;68.65;93309.91;4925664;28;20027;-72
2023/05/17 04:08:00;;;;;;;16.50;6.78;;;;;;;13.21;68.71;93325.63;4919482;28;20067;-74
2023/05/17 04:10:25;;;;;;;12.15;6.93;;;;;;;13.16;68.66;93312.53;4916846;28;20443;-74
2023/05/17 04:12:50;;;;;;;15.55;7.13;;;;;;;13.31;69.07;93325.13;4913327;28;20121;-73
2023/05/17 04:15:16;;;;;;;10.18;7.00;;;;;;;13.29;69.71;93325.50;4915862;28;20047;-74
2023/05/17 04:17:41;;;;;;;17.95;7.65;;;;;;;12.94;71.47;93318.41;4918372;28;20086;-74
2023/05/17 04:20:07;;;;;;;16.33;9.98;;;;;;;12.96;71.78;93319.59;4916873;28;20670;-73
2023/05/17 04:22:32;;;;;;;24.27;11.13;;;;;;;12.83;71.80;93313.53;4916123;28;20149;-73
2023/05/17 04:24:58;;;;;;;28.80;12.35;;;;;;;12.95;71.40;93322.63;4916779;28;20132;-74
2023/05/17 04:27:23;;;;;;;26.17;11.68;;;;;;;12.92;71.59;93315.28;4920885;28;20050;-74
2023/05/17 04:29:49;;;;;;;26.77;11.40;;;;;;;13.21;70.58;93315.72;4914979;28;20038;-74
2023/05/17 04:32:15;;;;;;;19.30;11.10;;;;;;;13.35;69.67;93326.00;4917206;28;20027;-74
2023/05/17 04:34:42;;;;;;;23.67;13.45;;;;;;;13.59;69.03;93335.84;4914503;28;20502;-73
2023/05/17 04:37:07;;;;;;;19.85;12.43;;;;;;;13.62;69.12;93324.47;4916433;28;20603;-74
2023/05/17 04:39:32;;;;;;;24.67;12.35;;;;;;;13.65;69.24;93323.75;4917384;28;20044;-74
2023/05/17 04:41:58;;;;;;;18.13;12.50;;;;;;;13.69;69.67;93316.63;4930882;28;20235;-74
2023/05/17 04:44:23;;;;;;;21.17;12.65;;;;;;;13.89;69.07;93328.16;4930357;28;20599;-74
2023/05/17 04:46:49;;;;;;;19.23;13.10;;;;;;;14.00;69.32;93318.50;4930022;28;20038;-74
2023/05/17 04:49:14;;;;;;;21.65;13.63;;;;;;;14.10;68.96;93323.34;4925872;28;20442;-74
2023/05/17 04:51:40;;;;;;;21.10;13.43;;;;;;;14.05;68.82;93318.25;4927754;28;20414;-73
2023/05/17 04:54:07;;;;;;;21.75;13.70;;;;;;;14.01;68.44;93314.72;4928756;28;20109;-74
2023/05/17 04:56:35;;;;;;;20.50;14.20;;;;;;;13.76;68.96;93292.75;4929296;28;21905;-74
2023/05/17 04:59:02;;;;;;;26.77;16.73;;;;;;;14.33;67.73;93329.59;4927109;28;20407;-73
2023/05/17 05:01:29;;;;;;;21.20;15.93;;;;;;;14.40;67.66;93327.09;4927759;28;20048;-74
2023/05/17 05:03:56;;;;;;;30.80;16.02;;;;;;;13.84;69.10;93331.88;4927776;28;20043;-74
2023/05/17 05:06:21;;;;;;;24.88;15.77;;;;;;;13.81;68.20;93323.78;4926431;28;20047;-75
2023/05/17 05:08:47;;;;;;;24.13;16.20;;;;;;;14.02;69.10;93338.44;4943029;28;20548;-74
2023/05/17 05:11:12;;;;;;;25.45;15.95;;;;;;;14.28;67.78;93329.88;4930553;28;20034;-73
2023/05/17 05:13:38;;;;;;;25.38;15.82;;;;;;;14.16;68.57;93343.34;4928735;28;20035;-74
2023/05/17 05:16:04;;;;;;;27.30;16.27;;;;;;;13.97;70.18;93344.06;4928515;28;20557;-74
2023/05/17 05:18:30;;;;;;;24.10;17.58;;;;;;;13.92;70.50;93324.81;4942503;28;20043;-73
2023/05/17 05:20:56;;;;;;;23.45;15.45;;;;;;;13.86;70.91;93340.34;4926877;28;20745;-74
2023/05/17 05:23:21;;;;;;;26.23;16.52;;;;;;;14.08;69.58;93342.41;4927146;28;20069;-73
2023/05/17 05:25:46;;;;;;;25.08;16.10;;;;;;;14.60;68.57;93336.75;4928533;28;20467;-74
2023/05/17 05:28:12;;;;;;;23.80;16.15;;;;;;;14.83;67.17;93336.09;4942754;28;20047;-74
2023/05/17 05:30:37;;;;;;;25.13;14.95;;;;;;;14.46;67.30;93324.94;4917769;28;20036;-74
2023/05/17 05:33:02;;;;;;;27.20;15.52;;;;;;;14.41;67.83;93333.22;4909711;28;20036;-73
2023/05/17 05:35:28;;;;;;;26.40;15.60;;;;;;;13.82;69.35;93334.13;4910675;29;20043;-74
2023/05/17 05:37:55;;;;;;;31.83;15.35;;;;;;;13.44;68.94;93307.19;4907823;28;20040;-74
2023/05/17 05:40:20;;;;;;;20.08;14.63;;;;;;;13.00;70.74;93330.41;4905471;29;20800;-74
2023/05/17 05:42:46;;;;;;;25.27;15.27;;;;;;;13.05;71.18;93341.63;4909216;28;20204;-74
2023/05/17 05:45:11;;;;;;;23.88;16.30;;;;;;;13.13;72.29;93345.25;4908025;28;20039;-74
2023/05/17 05:47:36;;;;;;;24.17;16.02;;;;;;;13.26;71.53;93339.53;4909310;28;20482;-73
2023/05/17 05:50:04;;;;;;;23.90;14.10;;;;;;;13.36;71.42;93359.63;4907956;29;20119;-74
2023/05/17 05:52:29;;;;;;;26.85;15.15;;;;;;;13.36;70.06;93353.50;4919116;28;20039;-74
2023/05/17 05:54:55;;;;;;;29.60;15.05;;;;;;;13.56;70.50;93353.28;4926823;28;20090;-74
2023/05/17 05:57:20;;;;;;;27.70;14.77;;;;;;;13.64;69.89;93352.38;4931176;28;20043;-73
2023/05/17 05:59:45;;;;;;;20.48;14.20;;;;;;;13.94;69.01;93349.28;4927982;28;20271;-74
2023/05/17 06:02:11;;;;;;;25.48;14.23;;;;;;;13.81;69.50;93350.50;4927007;28;20114;-74
2023/05/17 06:04:37;;;;;;;26.40;14.10;;;;;;;14.33;69.17;93364.38;4927991;28;20545;-74
2023/05/17 06:07:06;;;;;;;29.48;14.45;;;;;;;13.68;69.65;93355.94;4931817;28;20043;-73
2023/05/17 06:09:31;;;;;;;23.55;14.32;;;;;;;13.99;70.15;93359.72;4928336;28;20044;-74
2023/05/17 06:11:56;;;;;;;24.10;15.13;;;;;;;13.88;69.44;93331.97;4934135;28;20058;-73
2023/05/17 06:14:22;;;;;;;26.63;13.52;;;;;;;13.95;68.85;93353.53;4931397;28;20030;-73
2023/05/17 06:16:47;;;;;;;24.98;12.93;;;;;;;14.03;67.98;93366.72;4929857;28;20593;-74
2023/05/17 06:19:13;;;;;;;23.50;11.95;;;;;;;13.75;69.08;93364.13;4944086;28;20049;-74
2023/05/17 06:21:39;;;;;;;18.17;11.07;;;;;;;13.62;68.76;93365.31;4928090;28;20520;-73
2023/05/17 06:24:05;;;;;;;22.83;12.63;;;;;;;13.79;70.44;93372.22;4923959;28;20036;-74
2023/05/17 06:26:31;;;;;;;24.30;13.40;;;;;;;13.71;69.03;93357.91;4912979;29;20044;-74
2023/05/17 06:28:56;;;;;;;21.73;12.25;;;;;;;13.74;69.70;93365.22;4910994;29;20597;-73
2023/05/17 06:31:21;;;;;;;24.23;11.48;;;;;;;13.96;68.95;93363.09;4912447;29;20353;-73
2023/05/17 06:33:47;;;;;;;25.58;11.95;;;;;;;13.62;69.90;93354.63;4908426;29;20059;-73
2023/05/17 06:36:13;;;;;;;23.73;12.07;;;;;;;13.71;70.75;93384.63;4910291;29;20043;-73
2023/05/17 06:38:38;;;;;;;18.58;11.45;;;;;;;13.96;69.58;93381.81;4910719;29;20398;-72
2023/05/17 06:41:03;;;;;;;21.38;11.20;;;;;;;14.12;68.65;93351.31;4924113;28;20059;-74
2023/05/17 06:43:29;;;;;;;21.60;12.13;;;;;;;14.34;67.82;93354.47;4911078;29;20439;-74
2023/05/17 06:45:54;;;;;;;18.50;11.85;;;;;;;14.13;68.77;93354.75;4910968;29;20159;-74
2023/05/17 06:48:19;;;;;;;24.25;12.52;;;;;;;14.25;69.12;93365.34;4910139;29;20502;-74
2023/05/17 06:50:45;;;;;;;20.50;11.75;;;;;;;14.30;69.85;93367.75;4908295;29;20387;-74
2023/05/17 06:53:10;;;;;;;18.98;10.48;;;;;;;14.20;69.63;93368.28;4914102;29;20554;-74
2023/05/17 06:55:36;;;;;;;19.08;10.23;;;;;;;14.31;68.24;93361.28;4908614;29;20039;-74
2023/05/17 06:58:01;;;;;;;18.42;10.40;;;;;;;14.55;69.51;93353.09;4906484;29;20218;-72
2023/05/17 07:00:27;;;;;;;21.33;11.40;;;;;;;14.71;68.05;93365.66;4909279;28;20046;-74
2023/05/17 07:02:52;;;;;;;18.95;11.23;;;;;;;14.77;68.91;93369.59;4907120;28;20216;-73
2023/05/17 07:05:18;;;;;;;16.30;11.23;;;;;;;14.82;69.43;93372.00;4923206;28;20028;-73
2023/05/17 07:07:43;;;;;;;25.95;10.00;;;;;;;14.90;68.08;93373.72;4909954;29;20036;-73
2023/05/17 07:10:09;;;;;;;18.45;10.10;;;;;;;14.89;68.31;93374.84;4909066;29;20036;-73
2023/05/17 07:12:34;;;;;;;17.23;9.23;;;;;;;14.64;66.39;93336.06;4908088;28;20040;-73
2023/05/17 07:15:00;;;;;;;18.75;11.52;;;;;;;14.77;68.14;93374.94;4910780;29;20091;-74
2023/05/17 07:17:25;;;;;;;24.42;11.55;;;;;;;14.90;68.62;93382.53;4910528;29;20052;-74
2023/05/17 07:19:51;;;;;;;22.35;12.15;;;;;;;14.89;68.70;93361.47;4909042;28;20032;-74
2023/05/17 07:22:17;;;;;;;20.73;12.48;;;;;;;14.81;68.35;93365.91;4909813;28;20442;-73
2023/05/17 07:24:43;;;;;;;22.73;12.85;;;;;;;14.81;67.46;93379.28;4910513;28;20039;-74
2023/05/17 07:27:09;;;;;;;20.52;13.95;;;;;;;14.65;70.07;93399.16;4909787;29;20438;-74
2023/05/17 07:29:34;;;;;;;19.50;12.18;;;;;;;14.43;70.42;93377.22;4910140;28;20027;-73
2023/05/17 07:32:00;;;;;;;21.50;12.10;;;;;;;14.68;70.43;93393.88;4916172;29;20449;-74
2023/05/17 07:34:25;;;;;;;26.40;11.88;;;;;;;14.46;69.74;93392.59;4908012;28;20564;-73
2023/05/17 07:36:50;;;;;;;22.23;13.20;;;;;;;14.34;70.32;93400.72;4908984;28;20043;-73
2023/05/17 07:39:16;;;;;;;22.55;12.52;;;;;;;14.15;71.26;93347.16;4906430;29;20039;-73
2023/05/17 07:41:41;;;;;;;24.48;12.23;;;;;;;14.57;69.75;93407.03;4908046;28;20655;-74
2023/05/17 07:44:06;;;;;;;25.33;12.38;;;;;;;14.91;69.80;93391.34;4909005;29;20074;-74
2023/05/17 07:46:32;;;;;;;18.10;11.60;;;;;;;14.72;69.53;93399.31;4909648;28;20050;-73
2023/05/17 07:48:57;;;;;;;24.20;11.85;;;;;;;14.59;70.90;93387.94;4908735;29;20032;-74
2023/05/17 07:51:23;;;;;;;19.30;13.15;;;;;;;14.18;71.92;93375.84;4909289;28;20056;-74
2023/05/17 07:53:48;;;;;;;23.08;12.98;;;;;;;14.26;71.16;93390.97;4907734;29;20039;-74
2023/05/17 07:56:14;;;;;;;24.30;13.95;;;;;;;14.13;72.83;93392.94;4909534;29;20083;-73
2023/05/17 07:58:39;;;;;;;18.30;11.85;;;;;;;14.11;71.96;93367.69;4909212;28;20441;-73
2023/05/17 08:01:05;;;;;;;17.38;11.10;;;;;;;14.49;71.18;93394.56;4909342;28;20217;-73
2023/05/17 08:03:30;;;;;;;23.38;12.77;;;;;;;14.35;71.91;93399.59;4908593;28;20040;-73
2023/05/17 08:05:55;;;;;;;21.08;10.93;;;;;;;14.57;70.59;93395.53;4907837;28;20043;-73
2023/05/17 08:08:21;;;;;;;22.75;10.98;;;;;;;14.55;70.50;93397.78;4906941;29;20032;-74
2023/05/17 08:10:46;;;;;;;27.35;12.07;;;;;;;14.52;71.21;93393.88;4908804;28;20048;-73
2023/05/17 08:13:12;;;;;;;25.27;11.38;;;;;;;14.48;71.10;93397.59;4908790;29;20040;-74
2023/05/17 08:15:37;;;;;;;22.48;12.98;;;;;;;14.34;71.84;93368.63;4910099;29;20028;-73
2023/05/17 08:18:03;;;;;;;31.48;12.77;;;;;;;14.72;71.53;93380.56;4907870;29;20039;-74
2023/05/17 08:20:28;;;;;;;23.42;11.93;;;;;;;14.51;70.66;93380.84;4916418;29;20028;-73
2023/05/17 08:22:53;;;;;;;22.92;11.80;;;;;;;14.57;71.52;93396.31;4909120;28;20046;-73
2023/05/17 08:25:19;;;;;;;21.75;11.93;;;;;;;14.50;70.47;93390.78;4908100;29;20036;-73
2023/05/17 08:27:45;;;;;;;17.90;10.43;;;;;;;14.30;70.97;93367.75;4907699;28;20040;-73
2023/05/17 08:30:10;;;;;;;18.73;11.55;;;;;;;14.33;70.67;93366.28;4908672;28;20416;-74
2023/05/17 08:32:36;;;;;;;18.83;11.00;;;;;;;14.63;71.15;93372.75;4907768;28;20067;-73
2023/05/17 08:35:02;;;;;;;15.13;10.40;;;;;;;14.70;69.93;93382.84;4910068;29;20032;-73
2023/05/17 08:37:28;;;;;;;20.08;10.18;;;;;;;14.63;70.97;93374.63;4906726;29;21103;-73
2023/05/17 08:39:53;;;;;;;21.23;10.15;;;;;;;14.74;69.03;93372.97;4906752;28;20048;-73
2023/05/17 08:42:23;;;;;;;15.88;10.25;;;;;;;14.84;68.44;93383.16;4907492;29;20032;-74
2023/05/17 08:44:50;;;;;;;16.55;9.88;;;;;;;14.94;68.99;93385.28;4910554;28;20398;-73
2023/05/17 08:47:24;;;;;;;20.02;10.65;;;;;;;15.05;67.95;93356.84;4907349;29;20475;-74
2023/05/17 08:49:52;;;;;;;13.95;8.98;;;;;;;14.84;67.81;93367.88;4905611;29;20108;-73
2023/05/17 08:52:17;;;;;;;23.40;10.90;;;;;;;15.10;68.20;93374.53;4907419;29;20052;-73
2023/05/17 08:54:42;;;;;;;14.77;9.40;;;;;;;15.14;67.01;93370.78;4906250;28;20042;-74
2023/05/17 08:57:10;;;;;;;17.35;9.45;;;;;;;15.06;67.91;93365.66;4908485;28;20068;-74
2023/05/17 08:59:37;;;;;;;21.15;9.75;;;;;;;15.10;67.14;93379.88;4921432;28;20032;-73
2023/05/17 09:02:04;;;;;;;18.60;9.98;;;;;;;15.25;67.30;93377.16;4908485;29;20027;-74
2023/05/17 09:04:30;;;;;;;23.50;10.68;;;;;;;15.15;66.86;93374.25;4907384;29;20048;-74
2023/05/17 09:06:56;;;;;;;16.13;8.98;;;;;;;15.20;65.96;93379.31;4910224;28;20068;-73
2023/05/17 09:09:22;;;;;;;14.98;8.98;;;;;;;14.96;67.31;93359.69;4901602;28;20044;-74
2023/05/17 09:11:48;;;;;;;22.48;10.00;;;;;;;15.30;67.85;93366.13;4908283;28;20721;-74
2023/05/17 09:14:17;;;;;;;13.88;8.75;;;;;;;15.31;65.93;93377.63;4908682;29;20032;-74
2023/05/17 09:16:43;;;;;;;20.05;9.05;;;;;;;15.03;66.80;93364.44;4922062;28;20412;-74
2023/05/17 09:19:15;;;;;;;14.30;8.65;;;;;;;15.61;66.52;93357.19;4906962;28;20043;-73
2023/05/17 09:21:44;;;;;;;19.67;9.10;;;;;;;15.46;65.59;93363.41;4908831;28;20039;-74
2023/05/17 09:24:10;;;;;;;16.48;9.10;;;;;;;15.26;66.12;93346.53;4907345;28;20123;-73
2023/05/17 09:26:40;;;;;;;17.80;8.25;;;;;;;15.39;65.11;93356.00;4906850;28;20036;-74
2023/05/17 09:29:13;;;;;;;18.70;8.57;;;;;;;15.43;64.36;93372.13;4908917;29;20039;-74
2023/05/17 09:31:40;;;;;;;16.95;8.40;;;;;;;15.36;66.24;93370.06;4912790;28;20637;-74
2023/05/17 09:34:06;;;;;;;16.95;9.10;;;;;;;15.52;66.16;93361.22;4910676;28;20067;-74
2023/05/17 09:36:35;;;;;;;18.73;9.48;;;;;;;15.41;65.59;93367.13;4909620;29;20043;-74
2023/05/17 09:39:04;;;;;;;20.63;9.07;;;;;;;15.23;65.07;93373.25;4907009;28;20126;-73
2023/05/17 09:41:40;;;;;;;15.40;8.88;;;;;;;15.16;66.16;93373.88;4910138;28;20054;-73
2023/05/17 09:44:10;;;;;;;16.10;8.82;;;;;;;15.28;66.58;93378.34;4912239;29;20573;-74
2023/05/17 09:46:40;;;;;;;18.52;10.27;;;;;;;15.48;66.81;93373.78;4910146;28;20043;-74
2023/05/17 09:49:07;;;;;;;26.77;11.85;;;;;;;15.35;68.31;93363.16;4909856;29;20582;-74
2023/05/17 09:51:38;;;;;;;20.42;10.05;;;;;;;15.48;67.86;93368.41;4911315;28;20050;-73
2023/05/17 09:54:05;;;;;;;18.05;10.43;;;;;;;15.46;67.88;93355.34;4910408;28;20051;-74
2023/05/17 09:56:31;;;;;;;22.23;11.75;;;;;;;15.41;68.10;93367.13;4924667;28;20040;-73
2023/05/17 09:58:59;;;;;;;22.08;10.40;;;;;;;14.86;68.43;93362.16;4910062;28;20047;-74
2023/05/17 10:01:26;;;;;;;23.10;10.85;;;;;;;14.98;68.17;93356.69;4911427;28;20112;-74
2023/05/17 10:03:53;;;;;;;21.80;11.07;;;;;;;15.20;68.82;93315.81;4912049;28;20058;-73
2023/05/17 10:06:21;;;;;;;16.02;8.32;;;;;;;15.04;67.59;93355.28;4909793;28;20036;-73
2023/05/17 10:08:51;;;;;;;18.60;9.23;;;;;;;14.76;69.30;93360.81;4911494;28;20066;-73
2023/05/17 10:11:21;;;;;;;15.10;8.45;;;;;;;14.53;69.71;93355.31;4914881;29;20027;-74
2023/05/17 10:14:06;;;;;;;16.13;8.43;;;;;;;14.66;69.83;93344.53;4927000;28;20246;-74
2023/05/17 10:16:33;;;;;;;19.80;10.13;;;;;;;14.37;69.46;93333.16;4943935;28;20044;-75
2023/05/17 10:18:59;;;;;;;19.35;9.05;;;;;;;14.33;70.08;93331.50;4925383;28;20579;-74
2023/05/17 10:21:25;;;;;;;21.55;8.98;;;;;;;14.28;70.23;93313.03;4926319;28;20126;-75
2023/05/17 10:23:52;;;;;;;17.20;9.27;;;;;;;14.14;70.91;93313.50;4923119;28;20482;-74
2023/05/17 10:26:17;;;;;;;29.08;9.50;;;;;;;14.09;70.38;93321.78;4932966;28;20036;-73
2023/05/17 10:28:45;;;;;;;14.82;8.65;;;;;;;14.08;71.02;93314.91;4944916;28;20036;-75
2023/05/17 10:31:11;;;;;;;17.52;8.38;;;;;;;14.14;70.77;93297.44;4925056;28;20043;-74
2023/05/17 10:33:38;;;;;;;20.38;10.02;;;;;;;14.07;70.99;93284.72;4928962;28;20413;-74
2023/05/17 10:36:05;;;;;;;23.65;9.40;;;;;;;14.04;70.16;93280.03;4927114;28;20039;-74
2023/05/17 10:38:31;;;;;;;22.30;8.13;;;;;;;13.83;70.36;93244.03;4925986;28;20386;-74
2023/05/17 10:40:57;;;;;;;17.00;8.18;;;;;;;13.96;69.52;93266.88;4926009;28;20154;-73
2023/05/17 10:43:23;;;;;;;14.48;8.05;;;;;;;13.96;70.50;93258.84;4927996;28;20039;-74
2023/05/17 10:45:49;;;;;;;16.65;8.05;;;;;;;13.79;70.19;93254.63;4927943;28;20035;-75
2023/05/17 10:48:18;;;;;;;20.50;9.85;;;;;;;14.05;70.42;93240.72;4928462;28;20042;-73
2023/05/17 10:50:45;;;;;;;19.00;8.85;;;;;;;14.17;69.74;93238.72;4935139;28;20110;-73
2023/05/17 10:53:11;;;;;;;20.77;8.93;;;;;;;14.45;69.39;93225.16;4928645;28;20050;-74
2023/05/17 10:55:43;;;;;;;24.85;9.13;;;;;;;14.06;68.93;93216.31;4930044;28;20506;-73
2023/05/17 10:58:15;;;;;;;11.75;7.25;;;;;;;13.98;69.82;93224.53;4925897;28;20044;-74
2023/05/17 11:00:43;;;;;;;17.33;8.32;;;;;;;14.06;70.14;93210.19;4927669;28;20043;-74
2023/05/17 11:03:19;;;;;;;19.17;9.55;;;;;;;14.28;70.53;93214.84;4929849;28;20498;-75
2023/05/17 11:06:05;;;;;;;20.60;10.50;;;;;;;14.27;70.03;93217.91;4942162;28;20312;-74
2023/05/17 11:08:31;;;;;;;20.10;9.10;;;;;;;14.21;70.55;93227.31;4924309;28;20069;-74
2023/05/17 11:11:11;;;;;;;21.73;8.82;;;;;;;14.25;70.29;93223.59;4923543;28;20032;-74
2023/05/17 11:14:02;;;;;;;17.90;8.00;;;;;;;14.15;70.22;93227.59;4930573;28;20564;-74
2023/05/17 11:16:35;;;;;;;17.65;8.80;;;;;;;14.22;69.63;93229.66;4929014;28;20437;-74
2023/05/17 11:19:09;;;;;;;19.45;8.02;;;;;;;14.32;69.54;93226.44;4929731;28;20070;-74
2023/05/17 11:21:34;;;;;;;17.63;8.73;;;;;;;14.26;69.53;93238.53;4924900;28;20078;-74